createdAt,value
2023-04-27T00:20:05.462Z,1.7
2023-04-27T00:50:08.655Z,2
2023-04-27T01:20:07.369Z,1.9
2023-04-27T01:50:05.198Z,1.8
2023-04-27T02:20:06.710Z,1.8
2023-04-27T02:50:05.940Z,1.9
2023-04-27T03:20:08.805Z,1.6
2023-04-27T03:50:06.336Z,1.6
2023-04-27T04:20:07.088Z,1.8
2023-04-27T04:50:06.861Z,1.5
2023-04-27T05:20:06.802Z,1.7
2023-04-27T05:50:07.708Z,2.2
2023-04-27T06:20:09.426Z,2.2
2023-04-27T06:50:08.235Z,2
2023-04-27T07:20:10.104Z,2.2
2023-04-27T07:50:10.718Z,1.9
2023-04-27T08:20:11.861Z,1.8
2023-04-27T08:50:13.369Z,1.9
2023-04-27T09:20:15.245Z,1.9
2023-04-27T09:50:17.716Z,2
2023-04-27T10:20:22.740Z,2.6
2023-04-27T10:50:22.615Z,2.4
2023-04-27T11:20:32.331Z,2.4
2023-04-27T11:50:29.797Z,2.7
2023-04-27T12:20:32.482Z,2.9
2023-04-27T12:50:45.917Z,2.9
2023-04-27T13:20:44.005Z,2.6
2023-04-27T13:50:43.379Z,3.7
2023-04-27T14:20:46.407Z,3.4
2023-04-27T14:50:49.472Z,2.8
2023-04-27T15:20:53.632Z,2.8
2023-04-27T15:50:56.202Z,2.7
2023-04-27T16:21:02.321Z,2.8
2023-04-27T16:51:02.602Z,3.1
2023-04-27T17:21:05.365Z,3.1
2023-04-27T17:51:08.665Z,3.2
2023-04-27T18:21:11.146Z,3.1
2023-04-27T18:51:13.670Z,2.6
2023-04-27T19:21:18.268Z,2.7
2023-04-27T19:51:17.483Z,2.5
2023-04-27T20:21:21.360Z,2.7
2023-04-27T20:51:23.556Z,2.7
2023-04-27T21:21:24.330Z,3.2
2023-04-27T21:51:24.837Z,3.5
2023-04-27T22:21:27.345Z,4
2023-04-27T22:51:28.146Z,4
2023-04-27T23:21:29.506Z,4.3
2023-04-27T23:51:33.155Z,4.5
